Terminal Aerodrome Forecast
Issued by NWS Boston, MA

Home | Current Version | Previous Version | Text Only | Print | Product List | Glossary On
Versions: 1 2 3 4 5 6 7 8 9 10 11 12 13 14 15 16 17 18 19 20 21 22 23 24 25 26 27 28 29 30 31 32 33 34 35 36 37 38 39 40 41 42 43 44 45 46
000
FTUS41 KBOX 302320
TAFBOS
TAF
KBOS 302320Z 3100/0106 31012G22KT 6SM -SN OVC020
      TEMPO 3100/3101 2SM -SN OVC025
     FM310100 31018G28KT P6SM OVC035
      TEMPO 3107/3110 6SM -SN OVC025
     FM311100 31024G38KT P6SM OVC040
     FM311800 30023G37KT P6SM SCT250
     FM010100 30017G28KT P6SM SKC=

USA.gov is the U.S. government's official web portal to all federal, state and local government web resources and services.